Time;durP1;ratioP1;P1;durP2;ratioP2;P2;SDS_P1;SDS_P2;PMS_P1;PMS_P2;Temp;Humidity;BMP_temperature;BMP_pressure;BME280_temperature;BME280_humidity;BME280_pressure;Samples;Min_cycle;Max_cycle;Signal;HPM_P1;HPM_P2
2021/06/24 00:01:37;;;;;;;2.40;1.90;;;19.00;99.90;;;;;;5090810;28;20035;-69
2021/06/24 00:04:02;;;;;;;4.40;2.05;;;18.90;99.90;;;;;;5085970;28;20037;-65
2021/06/24 00:06:28;;;;;;;4.88;2.25;;;18.90;99.90;;;;;;5084986;28;20020;-62
2021/06/24 00:08:54;;;;;;;3.95;2.10;;;19.00;99.90;;;;;;5073027;28;20028;-62
2021/06/24 00:11:19;;;;;;;4.82;2.20;;;18.90;99.90;;;;;;5073234;28;20028;-64
2021/06/24 00:13:45;;;;;;;3.25;2.33;;;18.90;99.90;;;;;;5083440;28;20102;-62
2021/06/24 00:16:11;;;;;;;3.50;2.00;;;18.90;99.90;;;;;;5086644;28;20020;-61
2021/06/24 00:18:37;;;;;;;2.88;2.22;;;18.90;99.90;;;;;;5072499;28;20433;-62
2021/06/24 00:21:03;;;;;;;4.45;2.58;;;18.90;99.90;;;;;;5072687;28;20025;-64
2021/06/24 00:23:29;;;;;;;3.72;1.90;;;18.80;99.90;;;;;;5072141;28;20063;-70
2021/06/24 00:25:55;;;;;;;5.03;2.30;;;18.90;99.90;;;;;;5072764;28;20477;-67
2021/06/24 00:28:23;;;;;;;2.75;1.88;;;18.90;99.90;;;;;;5079529;28;20031;-64
2021/06/24 00:30:49;;;;;;;5.60;2.20;;;18.90;99.90;;;;;;5091335;28;20028;-62
2021/06/24 00:33:16;;;;;;;4.10;2.55;;;18.90;99.90;;;;;;5092518;28;20485;-61
2021/06/24 00:35:42;;;;;;;3.70;1.88;;;18.80;99.90;;;;;;5082919;28;20078;-61
2021/06/24 00:38:08;;;;;;;3.55;2.17;;;18.80;99.90;;;;;;5072511;28;20174;-62
2021/06/24 00:40:36;;;;;;;4.18;2.50;;;18.80;99.90;;;;;;5083923;28;20060;-61
2021/06/24 00:43:04;;;;;;;4.40;2.20;;;18.80;99.90;;;;;;5091864;28;20102;-61
2021/06/24 00:45:30;;;;;;;3.65;2.13;;;18.80;99.90;;;;;;5092442;28;20028;-67
2021/06/24 00:47:56;;;;;;;3.85;2.20;;;18.80;99.90;;;;;;5092084;28;20123;-67
2021/06/24 00:50:22;;;;;;;3.75;2.20;;;18.80;99.90;;;;;;5092537;28;20024;-67
2021/06/24 00:52:48;;;;;;;4.53;2.10;;;18.80;99.90;;;;;;5092228;28;20016;-65
2021/06/24 00:55:13;;;;;;;4.22;2.42;;;18.80;99.90;;;;;;5087081;28;20032;-65
2021/06/24 00:57:40;;;;;;;3.63;2.20;;;18.80;99.90;;;;;;5071204;28;20020;-61
2021/06/24 01:00:07;;;;;;;3.58;2.30;;;18.80;99.90;;;;;;5072033;28;20028;-61
2021/06/24 01:02:33;;;;;;;5.40;2.33;;;18.80;99.90;;;;;;5071637;28;20024;-62
2021/06/24 01:04:59;;;;;;;3.80;2.17;;;18.70;99.90;;;;;;5080603;28;20560;-62
2021/06/24 01:07:25;;;;;;;4.00;2.30;;;18.70;99.90;;;;;;5071489;28;20104;-63
2021/06/24 01:09:51;;;;;;;3.58;2.05;;;18.70;99.90;;;;;;5072011;28;20115;-61
2021/06/24 01:12:17;;;;;;;3.25;2.25;;;18.70;99.90;;;;;;5085008;28;20036;-66
2021/06/24 01:14:44;;;;;;;2.80;2.10;;;18.70;99.90;;;;;;5076866;28;20585;-68
2021/06/24 01:17:10;;;;;;;4.55;2.45;;;18.70;99.90;;;;;;5071764;28;20469;-67
2021/06/24 01:19:35;;;;;;;5.10;2.40;;;18.70;99.90;;;;;;5087915;28;20043;-67
2021/06/24 01:22:01;;;;;;;3.38;2.10;;;18.70;99.90;;;;;;5090656;28;20370;-65
2021/06/24 01:24:27;;;;;;;4.20;2.30;;;18.70;99.90;;;;;;5075424;28;20106;-64
2021/06/24 01:26:53;;;;;;;3.40;2.08;;;18.70;99.90;;;;;;5070951;28;20029;-61
2021/06/24 01:29:19;;;;;;;4.25;2.60;;;18.70;99.90;;;;;;5073792;28;20492;-63
2021/06/24 01:31:45;;;;;;;3.30;2.10;;;18.70;99.90;;;;;;5071425;28;20086;-62
2021/06/24 01:34:12;;;;;;;5.68;2.45;;;18.70;99.90;;;;;;5074480;28;20024;-62
2021/06/24 01:36:38;;;;;;;3.08;1.90;;;18.70;99.90;;;;;;5074992;28;20032;-63
2021/06/24 01:39:07;;;;;;;5.00;2.60;;;18.70;99.90;;;;;;5071657;28;20376;-62
2021/06/24 01:41:33;;;;;;;4.15;2.20;;;18.70;99.90;;;;;;5071273;28;20017;-63
2021/06/24 01:43:59;;;;;;;4.55;2.47;;;18.70;99.90;;;;;;5083095;28;20125;-66
2021/06/24 01:46:25;;;;;;;3.13;2.22;;;18.60;99.90;;;;;;5089567;28;20043;-67
2021/06/24 01:48:50;;;;;;;5.18;2.35;;;18.60;99.90;;;;;;5091508;28;20024;-67
2021/06/24 01:51:16;;;;;;;3.67;2.38;;;18.60;99.90;;;;;;5083275;28;20028;-63
2021/06/24 01:53:42;;;;;;;3.97;1.95;;;18.60;99.90;;;;;;5070445;28;20039;-65
2021/06/24 01:56:08;;;;;;;3.25;2.40;;;18.60;99.90;;;;;;5071304;28;20024;-62
2021/06/24 01:58:34;;;;;;;4.50;2.38;;;18.60;99.90;;;;;;5072044;28;20025;-65
2021/06/24 02:01:00;;;;;;;2.97;2.40;;;18.60;99.90;;;;;;5070858;28;20020;-62
2021/06/24 02:03:26;;;;;;;4.50;2.70;;;18.60;99.90;;;;;;5080053;28;20024;-66
2021/06/24 02:05:57;;;;;;;4.05;2.45;;;18.60;99.90;;;;;;5080466;28;20495;-66
2021/06/24 02:08:28;;;;;;;3.47;2.00;;;18.60;99.90;;;;;;5070138;28;20033;-62
2021/06/24 02:10:55;;;;;;;4.22;2.40;;;18.60;99.90;;;;;;5075090;28;20488;-64
2021/06/24 02:13:21;;;;;;;3.83;2.47;;;18.60;99.90;;;;;;5075422;28;20524;-63
2021/06/24 02:15:47;;;;;;;4.20;2.50;;;18.60;99.90;;;;;;5074738;28;20175;-62
2021/06/24 02:18:13;;;;;;;3.33;2.30;;;18.50;99.90;;;;;;5075333;28;20029;-62
2021/06/24 02:20:39;;;;;;;3.60;2.42;;;18.60;99.90;;;;;;5074792;28;20063;-62
2021/06/24 02:23:06;;;;;;;3.58;2.28;;;18.60;99.90;;;;;;5074580;28;20032;-62
2021/06/24 02:25:32;;;;;;;4.15;2.60;;;18.50;99.90;;;;;;5074627;28;20024;-61
2021/06/24 02:27:58;;;;;;;3.40;2.08;;;18.50;99.90;;;;;;5075055;28;20124;-65
2021/06/24 02:30:24;;;;;;;3.45;2.17;;;18.50;99.90;;;;;;5083030;28;20543;-64
2021/06/24 02:32:50;;;;;;;3.67;2.42;;;18.50;99.90;;;;;;5094980;28;20058;-65
2021/06/24 02:35:16;;;;;;;3.88;2.50;;;18.50;99.90;;;;;;5080019;28;20393;-66
2021/06/24 02:37:43;;;;;;;4.38;2.75;;;18.50;99.90;;;;;;5081463;28;20029;-62
2021/06/24 02:40:11;;;;;;;3.50;2.35;;;18.50;99.90;;;;;;5074676;28;20138;-64
2021/06/24 02:42:37;;;;;;;3.60;2.22;;;18.50;99.90;;;;;;5075350;28;20028;-62
2021/06/24 02:45:05;;;;;;;5.30;2.72;;;18.50;99.90;;;;;;5081697;28;20032;-63
2021/06/24 02:47:30;;;;;;;3.17;2.47;;;18.50;99.90;;;;;;5088624;28;20399;-62
2021/06/24 02:49:56;;;;;;;3.15;2.35;;;18.50;99.90;;;;;;5074499;28;20224;-63
2021/06/24 02:52:22;;;;;;;3.78;2.40;;;18.50;99.90;;;;;;5074362;28;20024;-62
2021/06/24 02:54:50;;;;;;;3.58;2.45;;;18.50;99.90;;;;;;5076665;28;20496;-66
2021/06/24 02:57:16;;;;;;;3.75;2.50;;;18.50;99.90;;;;;;5094808;28;20024;-66
2021/06/24 02:59:41;;;;;;;3.25;2.30;;;18.50;99.90;;;;;;5094233;28;20126;-66
2021/06/24 03:02:07;;;;;;;4.15;2.60;;;18.50;99.90;;;;;;5091398;28;20024;-65
2021/06/24 03:04:33;;;;;;;3.70;2.20;;;18.40;99.90;;;;;;5087883;28;20447;-62
2021/06/24 03:07:01;;;;;;;2.65;1.92;;;18.50;99.90;;;;;;5085376;28;20029;-62
2021/06/24 03:09:27;;;;;;;3.80;2.45;;;18.50;99.90;;;;;;5073865;28;20036;-62
2021/06/24 03:11:52;;;;;;;3.78;2.35;;;18.40;99.90;;;;;;5074319;28;20029;-63
2021/06/24 03:14:18;;;;;;;4.22;2.40;;;18.40;99.90;;;;;;5074121;28;20035;-66
2021/06/24 03:16:44;;;;;;;3.33;2.47;;;18.40;99.90;;;;;;5073869;28;20027;-61
2021/06/24 03:19:10;;;;;;;3.00;2.13;;;18.40;99.90;;;;;;5075046;28;20039;-63
2021/06/24 03:21:35;;;;;;;2.70;2.10;;;18.40;99.90;;;;;;5076392;28;20024;-66
2021/06/24 03:24:01;;;;;;;4.00;2.50;;;18.40;99.90;;;;;;5079994;28;20372;-67
2021/06/24 03:26:26;;;;;;;4.53;2.20;;;18.40;99.90;;;;;;5073377;28;20029;-66
2021/06/24 03:28:52;;;;;;;2.67;2.10;;;18.40;99.90;;;;;;5073978;28;20036;-65
2021/06/24 03:31:18;;;;;;;3.80;2.60;;;18.40;99.90;;;;;;5073845;28;20031;-67
2021/06/24 03:33:44;;;;;;;3.60;2.33;;;18.40;99.90;;;;;;5073678;28;20028;-67
2021/06/24 03:36:10;;;;;;;3.97;2.45;;;18.40;99.90;;;;;;5073567;28;20028;-62
2021/06/24 03:38:35;;;;;;;5.75;2.50;;;18.40;99.90;;;;;;5073568;28;20025;-63
2021/06/24 03:41:02;;;;;;;2.88;2.20;;;18.40;99.90;;;;;;5073528;28;20346;-62
2021/06/24 03:43:27;;;;;;;3.20;2.15;;;18.40;99.90;;;;;;5073067;28;20029;-61
2021/06/24 03:45:53;;;;;;;3.80;2.40;;;18.40;99.90;;;;;;5073351;28;20047;-63
2021/06/24 03:48:19;;;;;;;3.47;2.45;;;18.30;99.90;;;;;;5087596;28;20028;-66
2021/06/24 03:50:45;;;;;;;2.88;2.30;;;18.40;99.90;;;;;;5075632;28;20119;-65
2021/06/24 03:53:11;;;;;;;2.95;2.33;;;18.40;99.90;;;;;;5073055;28;20492;-68
2021/06/24 03:55:43;;;;;;;2.75;2.10;;;18.40;99.90;;;;;;5072903;28;20036;-63
2021/06/24 03:58:10;;;;;;;3.78;2.60;;;18.30;99.90;;;;;;5073340;28;20046;-68
2021/06/24 04:00:40;;;;;;;3.72;2.30;;;18.40;99.90;;;;;;5073045;28;20454;-63
2021/06/24 04:03:06;;;;;;;3.42;2.13;;;18.40;99.90;;;;;;5089716;28;20529;-62
2021/06/24 04:05:32;;;;;;;4.30;2.58;;;18.30;99.90;;;;;;5084501;28;20032;-65
2021/06/24 04:07:59;;;;;;;4.18;2.40;;;18.30;99.90;;;;;;5073268;28;20023;-64
2021/06/24 04:10:26;;;;;;;3.33;2.13;;;18.30;99.90;;;;;;5072627;28;20039;-65
2021/06/24 04:12:51;;;;;;;3.22;2.40;;;18.30;99.90;;;;;;5073404;28;20074;-61
2021/06/24 04:15:17;;;;;;;3.58;2.55;;;18.30;99.90;;;;;;5072850;28;20017;-60
2021/06/24 04:17:43;;;;;;;5.78;2.50;;;18.30;99.90;;;;;;5072462;28;20496;-64
2021/06/24 04:20:09;;;;;;;4.32;2.60;;;18.30;99.90;;;;;;5082301;28;20039;-67
2021/06/24 04:22:34;;;;;;;3.53;2.50;;;18.30;99.90;;;;;;5084738;28;20029;-66
2021/06/24 04:25:00;;;;;;;3.92;2.40;;;18.30;99.90;;;;;;5072096;28;20063;-62
2021/06/24 04:27:26;;;;;;;3.58;2.47;;;18.30;99.90;;;;;;5092351;28;20059;-63
2021/06/24 04:29:51;;;;;;;3.42;2.42;;;18.30;99.90;;;;;;5093212;28;20031;-65
2021/06/24 04:32:17;;;;;;;2.50;2.30;;;18.30;99.90;;;;;;5092187;28;20042;-66
2021/06/24 04:34:42;;;;;;;2.83;2.40;;;18.30;99.90;;;;;;5092203;28;20032;-63
2021/06/24 04:37:08;;;;;;;3.10;2.22;;;18.30;99.90;;;;;;5092345;28;20024;-62
2021/06/24 04:39:34;;;;;;;3.00;2.42;;;18.30;99.90;;;;;;5092353;28;20107;-67
2021/06/24 04:41:59;;;;;;;4.32;2.40;;;18.30;99.90;;;;;;5092197;28;20024;-65
2021/06/24 04:44:25;;;;;;;4.50;2.30;;;18.30;99.90;;;;;;5091686;28;20036;-63
2021/06/24 04:46:51;;;;;;;3.40;2.42;;;18.30;99.90;;;;;;5089701;28;20123;-62
2021/06/24 04:49:17;;;;;;;3.72;2.72;;;18.30;99.90;;;;;;5072171;28;20036;-62
2021/06/24 04:51:43;;;;;;;3.70;2.78;;;18.30;99.90;;;;;;5071680;28;20883;-63
2021/06/24 04:54:09;;;;;;;4.43;2.40;;;18.30;99.90;;;;;;5071867;28;20032;-62
2021/06/24 04:56:35;;;;;;;2.88;2.50;;;18.30;99.90;;;;;;5088949;28;20046;-61
2021/06/24 04:59:00;;;;;;;4.00;2.35;;;18.30;99.90;;;;;;5092164;28;20028;-62
2021/06/24 05:01:26;;;;;;;3.15;2.35;;;18.30;99.90;;;;;;5085205;28;20123;-61
2021/06/24 05:03:51;;;;;;;3.50;2.40;;;18.30;99.90;;;;;;5092545;28;20032;-68
2021/06/24 05:06:17;;;;;;;3.03;2.70;;;18.30;99.90;;;;;;5090769;28;20089;-67
2021/06/24 05:08:44;;;;;;;2.95;2.45;;;18.30;99.90;;;;;;5071126;28;20029;-63
2021/06/24 05:11:09;;;;;;;3.53;2.60;;;18.30;99.90;;;;;;5072070;28;20031;-62
2021/06/24 05:13:35;;;;;;;4.55;2.67;;;18.30;99.90;;;;;;5090219;28;20028;-61
2021/06/24 05:16:01;;;;;;;3.78;2.50;;;18.30;99.90;;;;;;5091791;28;20043;-63
2021/06/24 05:18:27;;;;;;;3.33;2.13;;;18.30;99.90;;;;;;5082317;28;20020;-62
2021/06/24 05:20:52;;;;;;;2.58;2.30;;;18.30;99.90;;;;;;5074874;28;20027;-62
2021/06/24 05:23:18;;;;;;;2.70;2.20;;;18.30;99.90;;;;;;5083412;28;20507;-62
2021/06/24 05:25:46;;;;;;;2.67;2.08;;;18.30;99.90;;;;;;5091363;28;20104;-62
2021/06/24 05:28:12;;;;;;;3.47;2.53;;;18.30;99.90;;;;;;5090290;28;20429;-67
2021/06/24 05:30:38;;;;;;;3.67;2.15;;;18.30;99.90;;;;;;5091574;28;20039;-66
2021/06/24 05:33:04;;;;;;;4.38;2.55;;;18.30;99.90;;;;;;5074853;28;20380;-64
2021/06/24 05:35:30;;;;;;;3.88;2.38;;;18.30;99.90;;;;;;5072079;28;20070;-68
2021/06/24 05:37:56;;;;;;;2.90;2.50;;;18.30;99.90;;;;;;5070612;28;20024;-65
2021/06/24 05:40:22;;;;;;;4.25;2.70;;;18.30;99.90;;;;;;5071507;28;20116;-67
2021/06/24 05:42:51;;;;;;;3.13;2.33;;;18.30;99.90;;;;;;5087575;28;20480;-65
2021/06/24 05:45:17;;;;;;;4.03;2.30;;;18.30;99.90;;;;;;5087803;28;20058;-68
2021/06/24 05:47:42;;;;;;;3.60;2.40;;;18.30;99.90;;;;;;5087864;28;20538;-65
2021/06/24 05:50:08;;;;;;;3.20;2.10;;;18.30;99.90;;;;;;5072828;28;20386;-68
2021/06/24 05:52:37;;;;;;;2.33;2.00;;;18.30;99.90;;;;;;5070930;28;20017;-63
2021/06/24 05:55:04;;;;;;;3.30;2.03;;;18.30;99.90;;;;;;5071540;28;20024;-63
2021/06/24 05:57:29;;;;;;;1.95;1.70;;;18.30;99.90;;;;;;5085774;28;20024;-66
2021/06/24 05:59:55;;;;;;;5.15;2.80;;;18.30;99.90;;;;;;5085509;28;20021;-68
2021/06/24 06:02:21;;;;;;;10.57;3.50;;;18.30;99.90;;;;;;5076145;28;20095;-67
2021/06/24 06:04:47;;;;;;;5.60;3.00;;;18.40;99.90;;;;;;5074554;28;20051;-65
2021/06/24 06:07:13;;;;;;;7.75;3.70;;;18.40;99.90;;;;;;5071229;28;20028;-66
2021/06/24 06:09:38;;;;;;;7.57;3.70;;;18.40;99.90;;;;;;5071581;28;20079;-66
2021/06/24 06:12:05;;;;;;;6.15;3.90;;;18.40;99.90;;;;;;5073771;28;20068;-66
2021/06/24 06:14:31;;;;;;;9.15;4.85;;;18.40;99.90;;;;;;5070778;28;20025;-64
2021/06/24 06:16:58;;;;;;;8.45;4.57;;;18.40;99.90;;;;;;5070763;28;20086;-65
2021/06/24 06:19:23;;;;;;;8.18;4.97;;;18.40;99.90;;;;;;5070927;28;20024;-63
2021/06/24 06:21:49;;;;;;;7.60;4.75;;;18.40;99.90;;;;;;5071165;28;20179;-62
2021/06/24 06:24:14;;;;;;;9.68;4.90;;;18.40;99.90;;;;;;5070948;28;20029;-69
2021/06/24 06:26:40;;;;;;;13.80;5.85;;;18.40;99.90;;;;;;5070759;28;20023;-68
2021/06/24 06:29:06;;;;;;;10.88;5.32;;;18.50;99.90;;;;;;5070937;28;20444;-68
2021/06/24 06:31:33;;;;;;;9.98;5.38;;;18.50;99.90;;;;;;5070761;28;20025;-68
2021/06/24 06:33:59;;;;;;;9.00;5.47;;;18.40;99.90;;;;;;5070307;28;20032;-65
2021/06/24 06:36:24;;;;;;;9.52;5.68;;;18.40;99.90;;;;;;5070500;28;20536;-68
2021/06/24 06:38:50;;;;;;;9.32;5.45;;;18.40;99.90;;;;;;5070102;28;20025;-67
2021/06/24 06:41:16;;;;;;;8.05;5.07;;;18.40;99.90;;;;;;5071594;28;20465;-67
2021/06/24 06:43:41;;;;;;;9.80;5.45;;;18.40;99.90;;;;;;5070678;28;20094;-66
2021/06/24 06:46:07;;;;;;;14.13;6.50;;;18.40;99.90;;;;;;5070694;28;20477;-62
2021/06/24 06:48:34;;;;;;;17.33;6.22;;;18.40;99.90;;;;;;5070608;28;20033;-62
2021/06/24 06:51:00;;;;;;;17.52;6.60;;;18.50;99.90;;;;;;5070880;28;20102;-64
2021/06/24 06:53:25;;;;;;;14.50;7.00;;;18.50;99.90;;;;;;5070586;28;20059;-69
2021/06/24 06:55:51;;;;;;;15.35;6.38;;;18.50;99.90;;;;;;5073235;28;20054;-71
2021/06/24 06:58:16;;;;;;;10.57;6.22;;;18.50;99.90;;;;;;5074398;28;20066;-74
2021/06/24 07:00:42;;;;;;;9.93;6.35;;;18.60;99.90;;;;;;5073848;28;20745;-75
2021/06/24 07:03:08;;;;;;;11.32;6.35;;;18.60;99.90;;;;;;5073090;28;20624;-76
2021/06/24 07:05:34;;;;;;;14.48;7.15;;;18.60;99.90;;;;;;5074068;28;20046;-77
2021/06/24 07:08:00;;;;;;;14.93;7.97;;;18.60;99.90;;;;;;5078685;28;20028;-77
2021/06/24 07:10:26;;;;;;;10.35;7.03;;;18.60;99.90;;;;;;5094150;28;20038;-78
2021/06/24 07:12:52;;;;;;;11.35;6.43;;;18.60;99.90;;;;;;5094688;28;20020;-76
2021/06/24 07:15:18;;;;;;;11.88;6.78;;;18.60;99.90;;;;;;5093304;28;20024;-74
2021/06/24 07:17:44;;;;;;;10.82;5.60;;;18.60;99.90;;;;;;5094178;28;20027;-76
2021/06/24 07:20:11;;;;;;;9.55;4.70;;;18.70;99.90;;;;;;5094195;28;20383;-76
2021/06/24 07:22:37;;;;;;;8.60;4.20;;;18.70;99.90;;;;;;5094250;28;20278;-70
2021/06/24 07:25:04;;;;;;;7.97;4.22;;;18.70;99.90;;;;;;5094142;28;20036;-74
2021/06/24 07:27:30;;;;;;;7.20;4.00;;;18.70;99.90;;;;;;5093972;28;20080;-75
2021/06/24 07:29:56;;;;;;;6.68;3.72;;;18.80;99.90;;;;;;5088435;28;20468;-77
2021/06/24 07:32:21;;;;;;;5.95;3.25;;;18.80;99.90;;;;;;5073972;28;20036;-75
2021/06/24 07:34:47;;;;;;;7.38;3.50;;;18.80;99.90;;;;;;5073539;28;20021;-75
2021/06/24 07:37:13;;;;;;;7.75;3.47;;;18.90;99.90;;;;;;5073828;28;20472;-73
2021/06/24 07:39:38;;;;;;;6.88;3.20;;;18.90;99.90;;;;;;5073487;28;20025;-74
2021/06/24 07:42:04;;;;;;;5.40;2.80;;;18.90;99.90;;;;;;5073773;28;20502;-74
2021/06/24 07:44:30;;;;;;;7.57;3.15;;;19.00;99.90;;;;;;5073673;28;20124;-74
2021/06/24 07:46:56;;;;;;;4.18;2.88;;;19.00;99.90;;;;;;5073677;28;20021;-71
2021/06/24 07:49:22;;;;;;;5.80;2.85;;;19.00;99.90;;;;;;5073872;28;20028;-74
2021/06/24 07:51:48;;;;;;;8.27;3.35;;;19.00;99.90;;;;;;5073937;28;20074;-74
2021/06/24 07:54:14;;;;;;;5.05;3.05;;;19.10;99.90;;;;;;5073599;28;20442;-76
2021/06/24 07:56:40;;;;;;;6.10;3.13;;;19.10;99.90;;;;;;5072003;28;20021;-78
2021/06/24 07:59:10;;;;;;;5.50;3.05;;;19.10;99.90;;;;;;5073305;28;20361;-76
2021/06/24 08:01:36;;;;;;;5.68;3.03;;;19.10;99.90;;;;;;5072753;28;20040;-75
2021/06/24 08:04:04;;;;;;;6.50;2.95;;;19.10;99.90;;;;;;5072817;28;20369;-76
2021/06/24 08:06:29;;;;;;;4.18;2.70;;;19.20;99.90;;;;;;5070838;28;20064;-78
2021/06/24 08:08:55;;;;;;;6.20;2.97;;;19.10;99.90;;;;;;5073046;28;20514;-73
2021/06/24 08:11:20;;;;;;;5.43;2.67;;;19.20;99.90;;;;;;5073428;28;20495;-74
2021/06/24 08:13:46;;;;;;;4.80;2.80;;;19.20;99.90;;;;;;5071736;28;20085;-72
2021/06/24 08:16:12;;;;;;;5.13;2.75;;;19.20;99.90;;;;;;5072586;28;20021;-75
2021/06/24 08:18:37;;;;;;;5.32;2.80;;;19.20;99.90;;;;;;5072780;28;20031;-76
2021/06/24 08:21:04;;;;;;;5.07;3.10;;;19.30;99.90;;;;;;5072977;28;20435;-75
2021/06/24 08:23:30;;;;;;;5.30;3.10;;;19.30;99.90;;;;;;5071475;28;20485;-73
2021/06/24 08:25:55;;;;;;;4.35;3.15;;;19.30;99.90;;;;;;5072859;28;20032;-70
2021/06/24 08:28:21;;;;;;;6.93;2.83;;;19.30;99.90;;;;;;5073058;28;20353;-75
2021/06/24 08:30:48;;;;;;;4.78;3.10;;;19.30;99.90;;;;;;5072076;28;20472;-76
2021/06/24 08:33:15;;;;;;;3.67;2.80;;;19.30;99.90;;;;;;5072369;28;20032;-73
2021/06/24 08:35:41;;;;;;;4.80;2.97;;;19.30;99.90;;;;;;5072264;28;20102;-74
2021/06/24 08:38:07;;;;;;;7.82;2.80;;;19.40;99.90;;;;;;5072742;28;20029;-73
2021/06/24 08:40:33;;;;;;;4.55;2.60;;;19.40;99.90;;;;;;5072350;28;20024;-75
2021/06/24 08:42:59;;;;;;;4.90;2.50;;;19.40;99.90;;;;;;5072577;28;20028;-74
2021/06/24 08:45:25;;;;;;;3.92;2.70;;;19.40;99.90;;;;;;5072067;28;20032;-73
2021/06/24 08:47:52;;;;;;;4.63;2.50;;;19.50;99.90;;;;;;5072713;28;20431;-75
2021/06/24 08:50:18;;;;;;;5.05;2.55;;;19.50;99.90;;;;;;5072622;28;20036;-73
2021/06/24 08:52:48;;;;;;;4.80;2.60;;;19.50;99.90;;;;;;5072041;28;20104;-77
2021/06/24 08:55:14;;;;;;;5.00;2.75;;;19.60;99.90;;;;;;5072441;28;20028;-69
2021/06/24 08:57:40;;;;;;;5.00;2.53;;;19.50;99.90;;;;;;5071975;28;20035;-75
2021/06/24 09:00:08;;;;;;;4.18;2.33;;;19.50;99.90;;;;;;5071764;28;20443;-77
2021/06/24 09:02:46;;;;;;;4.28;2.58;;;19.60;99.90;;;;;;5071805;28;20043;-78
2021/06/24 09:05:12;;;;;;;4.50;2.28;;;19.50;99.90;;;;;;5071864;28;20032;-75
2021/06/24 09:07:55;;;;;;;2.83;2.30;;;19.60;99.90;;;;;;5071848;28;20024;-73
2021/06/24 09:10:23;;;;;;;4.93;2.53;;;19.60;99.90;;;;;;5070735;28;20496;-73
2021/06/24 09:12:53;;;;;;;6.03;2.47;;;19.60;99.90;;;;;;5072249;28;20021;-75
2021/06/24 09:15:18;;;;;;;3.85;2.30;;;19.70;99.90;;;;;;5072365;28;20028;-73
2021/06/24 09:17:45;;;;;;;4.10;2.30;;;19.70;99.90;;;;;;5071187;28;20016;-74
2021/06/24 09:20:24;;;;;;;4.65;2.30;;;19.80;99.90;;;;;;5071568;28;20031;-72
2021/06/24 09:23:15;;;;;;;3.72;2.53;;;19.80;99.90;;;;;;5071993;28;20033;-73
2021/06/24 09:26:04;;;;;;;11.73;2.50;;;19.80;99.90;;;;;;5071546;28;20039;-74
2021/06/24 09:28:45;;;;;;;3.45;2.40;;;19.80;99.90;;;;;;5071571;28;20028;-79
2021/06/24 09:31:31;;;;;;;3.70;2.40;;;19.80;99.90;;;;;;5070957;28;20384;-72
2021/06/24 09:34:05;;;;;;;5.20;2.47;;;19.90;99.90;;;;;;5071595;28;20075;-74
2021/06/24 09:36:31;;;;;;;;;;;19.80;99.90;;;;;;5072032;28;20021;-75
2021/06/24 09:38:56;;;;;;;3.67;2.40;;;19.90;99.90;;;;;;5071685;28;19931;-74
2021/06/24 09:41:22;;;;;;;4.13;2.20;;;19.90;99.90;;;;;;5072338;28;20098;-75
2021/06/24 09:43:47;;;;;;;3.08;2.15;;;20.00;99.90;;;;;;5071252;28;20162;-74
2021/06/24 09:46:17;;;;;;;3.83;2.30;;;20.00;99.90;;;;;;5071385;28;20089;-73
2021/06/24 09:48:44;;;;;;;4.13;2.50;;;20.10;99.90;;;;;;5071066;28;20017;-74
2021/06/24 09:51:15;;;;;;;4.75;2.25;;;20.10;99.90;;;;;;5071451;28;20096;-73
2021/06/24 09:53:50;;;;;;;3.00;2.17;;;20.20;99.90;;;;;;5071031;28;20024;-71
2021/06/24 09:56:40;;;;;;;4.38;2.63;;;20.30;99.90;;;;;;5071367;28;20032;-73
2021/06/24 09:59:07;;;;;;;5.90;2.40;;;20.30;99.90;;;;;;5071488;28;20052;-72
2021/06/24 10:01:45;;;;;;;4.32;2.33;;;20.30;99.90;;;;;;5070809;28;20094;-70
2021/06/24 10:04:22;;;;;;;4.28;2.47;;;20.40;99.90;;;;;;5071347;28;20043;-71
2021/06/24 10:06:50;;;;;;;4.30;2.40;;;20.40;99.90;;;;;;5071717;28;20029;-71
2021/06/24 10:09:16;;;;;;;4.15;2.63;;;20.40;99.90;;;;;;5071150;28;20020;-72
2021/06/24 10:11:43;;;;;;;5.38;2.70;;;20.40;99.90;;;;;;5071048;28;20096;-70
2021/06/24 10:14:09;;;;;;;3.50;2.35;;;20.40;99.90;;;;;;5071308;28;20495;-74
2021/06/24 10:16:35;;;;;;;4.55;2.33;;;20.50;99.90;;;;;;5071123;28;20086;-69
2021/06/24 10:19:02;;;;;;;4.28;2.55;;;20.50;99.90;;;;;;5071264;28;20021;-70
2021/06/24 10:21:30;;;;;;;3.50;2.67;;;20.60;99.90;;;;;;5070522;28;20040;-68
2021/06/24 10:24:40;;;;;;;5.88;2.60;;;20.50;99.90;;;;;;5069639;28;20480;-68
2021/06/24 10:27:08;;;;;;;6.25;2.65;;;20.50;99.90;;;;;;5029907;28;20155;-71
2021/06/24 10:29:43;;;;;;;4.70;2.50;;;20.50;99.90;;;;;;5065098;28;20021;-75
2021/06/24 10:32:30;;;;;;;6.75;2.63;;;20.40;99.90;;;;;;5068384;28;20029;-75
2021/06/24 10:34:58;;;;;;;4.43;2.30;;;20.40;99.90;;;;;;5070726;28;20029;-73
2021/06/24 10:37:25;;;;;;;4.55;2.30;;;20.40;99.90;;;;;;5074006;28;20028;-67
2021/06/24 10:39:53;;;;;;;8.20;2.63;;;20.40;99.90;;;;;;5074730;28;20032;-72
2021/06/24 10:42:20;;;;;;;3.45;2.13;;;20.40;99.90;;;;;;5074445;28;20089;-66
2021/06/24 10:45:01;;;;;;;4.88;2.33;;;20.40;99.90;;;;;;5073703;28;20032;-70
2021/06/24 10:47:29;;;;;;;4.10;2.72;;;20.50;99.90;;;;;;5074023;28;20184;-79
2021/06/24 10:50:33;;;;;;;3.60;2.50;;;20.50;99.90;;;;;;5074098;28;20025;-75
2021/06/24 10:53:10;;;;;;;6.55;2.92;;;20.50;99.90;;;;;;5072992;28;20021;-78
2021/06/24 10:55:47;;;;;;;5.72;2.95;;;20.50;99.90;;;;;;5071197;28;20365;-82
2021/06/24 10:58:24;;;;;;;4.07;2.90;;;20.50;99.90;;;;;;5071531;28;20028;-82
2021/06/24 11:00:51;;;;;;;4.55;2.90;;;20.50;99.90;;;;;;5072112;28;20041;-83
2021/06/24 11:03:37;;;;;;;4.53;2.97;;;20.50;99.90;;;;;;5071404;28;20029;-77
2021/06/24 11:06:12;;;;;;;7.22;3.83;;;20.50;99.90;;;;;;5071659;28;20033;-81
2021/06/24 11:08:41;;;;;;;6.18;3.22;;;20.50;99.90;;;;;;5070544;28;20475;-80
2021/06/24 11:11:12;;;;;;;5.00;3.40;;;20.60;99.90;;;;;;5072423;28;20029;-79
2021/06/24 11:16:09;;;;;;;4.60;3.70;;;20.60;99.90;;;;;;5073402;28;20016;-82
2021/06/24 11:18:38;;;;;;;5.85;3.90;;;20.60;99.90;;;;;;5072885;28;20032;-80
2021/06/24 11:21:08;;;;;;;6.78;3.88;;;20.60;99.90;;;;;;5073328;28;20024;-81
2021/06/24 11:23:36;;;;;;;6.20;4.15;;;20.60;99.90;;;;;;5072928;28;20024;-81
2021/06/24 11:26:02;;;;;;;5.78;3.97;;;20.70;99.90;;;;;;5073221;28;20054;-81
2021/06/24 11:29:02;;;;;;;5.85;3.97;;;20.70;99.90;;;;;;5072362;28;20033;-78
2021/06/24 11:31:37;;;;;;;5.05;3.90;;;20.60;99.90;;;;;;5071550;28;20512;-80
2021/06/24 11:36:37;;;;;;;;;;;20.70;99.90;;;;;;5070243;28;20020;-79
2021/06/24 11:39:03;;;;;;;5.07;3.42;;;20.70;99.90;;;;;;5071906;28;19904;-78
2021/06/24 11:41:29;;;;;;;4.38;2.97;;;20.70;99.90;;;;;;5071703;28;20031;-76
2021/06/24 11:44:04;;;;;;;3.97;3.28;;;20.70;99.90;;;;;;5072245;28;20123;-76
2021/06/24 11:46:35;;;;;;;6.00;3.65;;;20.70;99.90;;;;;;5072259;28;20376;-75
2021/06/24 12:05:10;;;;;;;5.22;3.72;;;20.80;99.90;;;;;;5073825;28;20396;-79
2021/06/24 12:07:37;;;;;;;5.38;3.60;;;20.80;99.90;;;;;;5073238;28;20096;-80
2021/06/24 12:10:05;;;;;;;6.43;3.90;;;20.80;99.90;;;;;;5073638;28;20089;-78
2021/06/24 12:12:32;;;;;;;4.85;3.40;;;20.80;99.90;;;;;;5072145;28;20016;-79
2021/06/24 12:15:01;;;;;;;5.22;3.42;;;20.80;99.90;;;;;;5072738;28;20045;-80
2021/06/24 12:17:38;;;;;;;6.90;3.80;;;20.80;99.90;;;;;;5072818;28;20545;-80
2021/06/24 12:20:09;;;;;;;4.25;3.33;;;20.90;99.90;;;;;;5072973;28;20086;-80
2021/06/24 12:22:47;;;;;;;4.30;3.72;;;20.90;99.90;;;;;;5072896;28;20059;-79
2021/06/24 12:25:15;;;;;;;6.13;3.28;;;20.90;99.90;;;;;;5072990;28;20071;-80
2021/06/24 12:27:46;;;;;;;3.50;3.20;;;20.90;99.90;;;;;;5072566;28;20021;-78
2021/06/24 12:30:21;;;;;;;5.43;3.42;;;20.90;99.90;;;;;;5072926;28;20052;-78
2021/06/24 12:32:54;;;;;;;4.22;3.13;;;20.90;99.90;;;;;;5071751;28;20041;-79
2021/06/24 12:35:24;;;;;;;5.05;3.63;;;20.90;99.90;;;;;;5071672;28;20027;-77
2021/06/24 12:37:51;;;;;;;6.22;3.20;;;20.90;99.90;;;;;;5072631;28;20032;-77
2021/06/24 12:40:19;;;;;;;5.18;3.50;;;21.00;99.90;;;;;;5069832;28;20056;-74
2021/06/24 12:42:49;;;;;;;5.05;3.90;;;21.00;99.90;;;;;;5072439;28;20024;-77
2021/06/24 12:45:17;;;;;;;4.18;3.58;;;21.00;99.90;;;;;;5072389;28;20078;-77
2021/06/24 12:47:44;;;;;;;5.20;4.00;;;21.00;99.90;;;;;;5072166;28;20529;-79
2021/06/24 12:50:43;;;;;;;5.13;4.05;;;21.00;99.90;;;;;;5073473;28;20024;-76
2021/06/24 12:53:09;;;;;;;5.65;3.78;;;21.10;99.90;;;;;;5071879;28;20495;-73
2021/06/24 12:55:50;;;;;;;4.80;4.00;;;21.10;99.90;;;;;;5072054;28;20028;-76
2021/06/24 12:58:17;;;;;;;4.00;3.55;;;21.10;99.90;;;;;;5072179;28;20489;-78
2021/06/24 13:01:19;;;;;;;4.80;4.00;;;21.10;99.90;;;;;;5072168;28;20442;-67
2021/06/24 13:03:55;;;;;;;4.07;3.67;;;21.10;99.90;;;;;;5071816;28;20024;-72
2021/06/24 13:06:29;;;;;;;5.05;3.60;;;21.10;99.90;;;;;;5072560;28;20052;-71
2021/06/24 13:08:58;;;;;;;;;;;21.10;99.90;;;;;;5072190;28;20023;-75
2021/06/24 13:11:35;;;;;;;9.27;3.70;;;21.10;99.90;;;;;;5071584;28;19912;-74
2021/06/24 13:14:12;;;;;;;3.90;3.50;;;21.10;99.90;;;;;;5072166;28;20095;-72